sensor_id;sensor_type;location;lat;lon;timestamp;temperature;humidity
38854;DHT22;24606;51.992;4.198;2023-02-24T00:02:13;17.50;83.90
38854;DHT22;24606;51.992;4.198;2023-02-24T00:07:19;17.90;79.10
38854;DHT22;24606;51.992;4.198;2023-02-24T00:12:21;17.90;79.10
38854;DHT22;24606;51.992;4.198;2023-02-24T00:17:26;18.00;78.40
38854;DHT22;24606;51.992;4.198;2023-02-24T00:22:29;15.60;92.00
38854;DHT22;24606;51.992;4.198;2023-02-24T00:27:31;17.00;86.40
38854;DHT22;24606;51.992;4.198;2023-02-24T00:32:35;17.70;71.70
38854;DHT22;24606;51.992;4.198;2023-02-24T00:37:36;17.70;77.50
38854;DHT22;24606;51.992;4.198;2023-02-24T00:42:38;17.60;80.00
38854;DHT22;24606;51.992;4.198;2023-02-24T00:47:43;17.70;78.30
38854;DHT22;24606;51.992;4.198;2023-02-24T00:52:47;17.80;77.20
38854;DHT22;24606;51.992;4.198;2023-02-24T00:57:49;16.90;84.80
38854;DHT22;24606;51.992;4.198;2023-02-24T01:02:52;17.30;81.50
38854;DHT22;24606;51.992;4.198;2023-02-24T01:07:54;17.40;73.40
38854;DHT22;24606;51.992;4.198;2023-02-24T01:12:56;16.80;85.90
38854;DHT22;24606;51.992;4.198;2023-02-24T01:17:59;17.60;78.10
38854;DHT22;24606;51.992;4.198;2023-02-24T01:23:01;16.10;86.70
38854;DHT22;24606;51.992;4.198;2023-02-24T01:28:03;16.50;81.90
38854;DHT22;24606;51.992;4.198;2023-02-24T01:33:06;16.40;84.90
38854;DHT22;24606;51.992;4.198;2023-02-24T01:38:08;17.50;77.80
38854;DHT22;24606;51.992;4.198;2023-02-24T01:43:11;17.60;77.00
38854;DHT22;24606;51.992;4.198;2023-02-24T01:48:14;17.50;74.90
38854;DHT22;24606;51.992;4.198;2023-02-24T01:53:18;17.40;76.20
38854;DHT22;24606;51.992;4.198;2023-02-24T01:58:23;15.70;90.30
38854;DHT22;24606;51.992;4.198;2023-02-24T02:03:30;15.10;92.20
38854;DHT22;24606;51.992;4.198;2023-02-24T02:08:37;15.70;88.60
38854;DHT22;24606;51.992;4.198;2023-02-24T02:13:41;14.80;90.20
38854;DHT22;24606;51.992;4.198;2023-02-24T02:18:51;13.80;96.00
38854;DHT22;24606;51.992;4.198;2023-02-24T02:24:01;13.10;93.70
38854;DHT22;24606;51.992;4.198;2023-02-24T02:34:41;15.20;86.90
38854;DHT22;24606;51.992;4.198;2023-02-24T02:39:50;16.20;81.00
38854;DHT22;24606;51.992;4.198;2023-02-24T02:45:03;16.50;83.50
38854;DHT22;24606;51.992;4.198;2023-02-24T02:50:15;16.60;81.50
38854;DHT22;24606;51.992;4.198;2023-02-24T02:55:23;16.30;84.60
38854;DHT22;24606;51.992;4.198;2023-02-24T03:00:28;12.50;53.40
38854;DHT22;24606;51.992;4.198;2023-02-24T03:05:41;12.60;72.10
38854;DHT22;24606;51.992;4.198;2023-02-24T03:10:47;14.30;94.40
38854;DHT22;24606;51.992;4.198;2023-02-24T03:15:51;14.00;80.80
38854;DHT22;24606;51.992;4.198;2023-02-24T03:20:58;14.00;97.10
38854;DHT22;24606;51.992;4.198;2023-02-24T03:26:09;11.40;99.90
38854;DHT22;24606;51.992;4.198;2023-02-24T03:31:24;13.40;93.70
38854;DHT22;24606;51.992;4.198;2023-02-24T03:36:30;13.10;67.00
38854;DHT22;24606;51.992;4.198;2023-02-24T03:41:36;11.00;99.90
38854;DHT22;24606;51.992;4.198;2023-02-24T03:46:40;11.30;99.90
38854;DHT22;24606;51.992;4.198;2023-02-24T03:51:48;12.50;99.90
38854;DHT22;24606;51.992;4.198;2023-02-24T03:57:08;11.70;99.60
38854;DHT22;24606;51.992;4.198;2023-02-24T04:02:17;13.10;98.80
38854;DHT22;24606;51.992;4.198;2023-02-24T04:07:29;10.50;99.50
38854;DHT22;24606;51.992;4.198;2023-02-24T04:12:38;11.20;86.80
38854;DHT22;24606;51.992;4.198;2023-02-24T04:17:44;10.10;99.90
38854;DHT22;24606;51.992;4.198;2023-02-24T04:22:52;11.80;99.90
38854;DHT22;24606;51.992;4.198;2023-02-24T04:27:57;11.70;83.90
38854;DHT22;24606;51.992;4.198;2023-02-24T04:33:01;10.90;99.90
38854;DHT22;24606;51.992;4.198;2023-02-24T04:38:04;11.00;81.90
38854;DHT22;24606;51.992;4.198;2023-02-24T04:43:06;10.50;99.90
38854;DHT22;24606;51.992;4.198;2023-02-24T04:48:08;8.80;90.70
38854;DHT22;24606;51.992;4.198;2023-02-24T04:53:15;11.20;99.90
38854;DHT22;24606;51.992;4.198;2023-02-24T04:58:18;9.30;90.10
38854;DHT22;24606;51.992;4.198;2023-02-24T05:03:21;8.50;94.90
38854;DHT22;24606;51.992;4.198;2023-02-24T05:08:29;8.80;99.90
38854;DHT22;24606;51.992;4.198;2023-02-24T05:13:31;11.20;96.90
38854;DHT22;24606;51.992;4.198;2023-02-24T05:18:37;11.50;79.00
38854;DHT22;24606;51.992;4.198;2023-02-24T05:23:42;9.40;99.90
38854;DHT22;24606;51.992;4.198;2023-02-24T05:28:46;11.60;99.90
38854;DHT22;24606;51.992;4.198;2023-02-24T05:33:54;11.80;69.20
38854;DHT22;24606;51.992;4.198;2023-02-24T05:38:58;11.10;99.90
38854;DHT22;24606;51.992;4.198;2023-02-24T05:44:08;11.50;67.50
38854;DHT22;24606;51.992;4.198;2023-02-24T05:49:13;10.70;99.90
38854;DHT22;24606;51.992;4.198;2023-02-24T05:54:16;8.90;99.20
38854;DHT22;24606;51.992;4.198;2023-02-24T05:59:19;11.30;99.90
38854;DHT22;24606;51.992;4.198;2023-02-24T06:04:21;9.50;98.80
38854;DHT22;24606;51.992;4.198;2023-02-24T06:09:40;10.00;99.90
38854;DHT22;24606;51.992;4.198;2023-02-24T06:14:44;9.60;99.90
38854;DHT22;24606;51.992;4.198;2023-02-24T06:19:50;8.90;99.90
38854;DHT22;24606;51.992;4.198;2023-02-24T06:24:54;9.10;94.00
38854;DHT22;24606;51.992;4.198;2023-02-24T06:29:56;8.20;98.50
38854;DHT22;24606;51.992;4.198;2023-02-24T06:34:58;8.20;99.90
38854;DHT22;24606;51.992;4.198;2023-02-24T06:40:02;7.90;99.90
38854;DHT22;24606;51.992;4.198;2023-02-24T06:45:15;8.30;99.90
38854;DHT22;24606;51.992;4.198;2023-02-24T06:50:18;10.50;99.90
38854;DHT22;24606;51.992;4.198;2023-02-24T06:55:22;7.80;99.90
38854;DHT22;24606;51.992;4.198;2023-02-24T07:00:30;8.40;99.90
38854;DHT22;24606;51.992;4.198;2023-02-24T07:14:29;8.30;99.90
38854;DHT22;24606;51.992;4.198;2023-02-24T07:19:31;8.10;99.90
38854;DHT22;24606;51.992;4.198;2023-02-24T07:24:35;7.60;99.90
38854;DHT22;24606;51.992;4.198;2023-02-24T07:29:40;7.20;99.90
38854;DHT22;24606;51.992;4.198;2023-02-24T07:34:41;7.90;99.90
38854;DHT22;24606;51.992;4.198;2023-02-24T07:39:43;10.20;99.90
38854;DHT22;24606;51.992;4.198;2023-02-24T07:44:47;7.10;99.90
38854;DHT22;24606;51.992;4.198;2023-02-24T07:49:49;7.10;99.90
38854;DHT22;24606;51.992;4.198;2023-02-24T07:54:51;7.60;99.90
38854;DHT22;24606;51.992;4.198;2023-02-24T07:59:56;7.40;99.90
38854;DHT22;24606;51.992;4.198;2023-02-24T08:04:59;7.30;99.90
38854;DHT22;24606;51.992;4.198;2023-02-24T08:10:02;7.40;99.90
38854;DHT22;24606;51.992;4.198;2023-02-24T08:15:14;7.00;99.90
38854;DHT22;24606;51.992;4.198;2023-02-24T08:20:23;7.40;99.90
38854;DHT22;24606;51.992;4.198;2023-02-24T08:25:27;7.50;99.90
38854;DHT22;24606;51.992;4.198;2023-02-24T08:30:38;9.60;99.90
38854;DHT22;24606;51.992;4.198;2023-02-24T08:35:44;7.20;99.90
38854;DHT22;24606;51.992;4.198;2023-02-24T08:40:48;7.40;99.90
38854;DHT22;24606;51.992;4.198;2023-02-24T08:45:54;7.70;99.90
38854;DHT22;24606;51.992;4.198;2023-02-24T08:51:00;7.90;99.90
38854;DHT22;24606;51.992;4.198;2023-02-24T08:56:04;7.80;99.90
38854;DHT22;24606;51.992;4.198;2023-02-24T09:01:13;8.50;99.90
38854;DHT22;24606;51.992;4.198;2023-02-24T09:06:22;7.70;99.90
38854;DHT22;24606;51.992;4.198;2023-02-24T09:11:25;7.50;99.90
38854;DHT22;24606;51.992;4.198;2023-02-24T09:16:29;9.70;99.90
38854;DHT22;24606;51.992;4.198;2023-02-24T09:21:30;7.40;99.90
38854;DHT22;24606;51.992;4.198;2023-02-24T09:26:50;7.70;99.90
38854;DHT22;24606;51.992;4.198;2023-02-24T09:31:59;7.90;99.90
38854;DHT22;24606;51.992;4.198;2023-02-24T09:37:13;9.40;99.90
38854;DHT22;24606;51.992;4.198;2023-02-24T09:42:28;8.30;99.90
38854;DHT22;24606;51.992;4.198;2023-02-24T09:47:37;8.40;99.90
38854;DHT22;24606;51.992;4.198;2023-02-24T09:52:58;8.50;99.90
38854;DHT22;24606;51.992;4.198;2023-02-24T09:58:18;8.40;99.90
38854;DHT22;24606;51.992;4.198;2023-02-24T10:03:30;7.60;99.90
38854;DHT22;24606;51.992;4.198;2023-02-24T10:08:46;7.60;99.90
38854;DHT22;24606;51.992;4.198;2023-02-24T10:13:53;8.10;99.90
38854;DHT22;24606;51.992;4.198;2023-02-24T10:19:04;7.50;99.90
38854;DHT22;24606;51.992;4.198;2023-02-24T10:24:19;9.60;99.90
38854;DHT22;24606;51.992;4.198;2023-02-24T10:29:38;8.30;99.90
38854;DHT22;24606;51.992;4.198;2023-02-24T10:34:45;8.40;99.90
38854;DHT22;24606;51.992;4.198;2023-02-24T10:39:49;7.10;99.90
38854;DHT22;24606;51.992;4.198;2023-02-24T10:45:03;8.50;99.90
38854;DHT22;24606;51.992;4.198;2023-02-24T10:50:24;7.30;99.90
38854;DHT22;24606;51.992;4.198;2023-02-24T10:55:30;8.00;99.90
38854;DHT22;24606;51.992;4.198;2023-02-24T11:00:54;8.70;99.90
38854;DHT22;24606;51.992;4.198;2023-02-24T11:06:22;9.30;99.90
38854;DHT22;24606;51.992;4.198;2023-02-24T11:11:52;9.10;99.90
38854;DHT22;24606;51.992;4.198;2023-02-24T11:17:19;7.90;99.90
38854;DHT22;24606;51.992;4.198;2023-02-24T11:22:31;8.10;99.90
38854;DHT22;24606;51.992;4.198;2023-02-24T11:27:34;8.90;99.90
38854;DHT22;24606;51.992;4.198;2023-02-24T11:32:46;9.10;99.90
38854;DHT22;24606;51.992;4.198;2023-02-24T11:38:00;9.70;99.90
38854;DHT22;24606;51.992;4.198;2023-02-24T11:43:04;9.60;99.90
38854;DHT22;24606;51.992;4.198;2023-02-24T11:48:11;8.90;99.90
38854;DHT22;24606;51.992;4.198;2023-02-24T11:53:25;9.90;99.90
38854;DHT22;24606;51.992;4.198;2023-02-24T11:58:29;9.70;99.90
38854;DHT22;24606;51.992;4.198;2023-02-24T12:03:36;9.80;99.90
38854;DHT22;24606;51.992;4.198;2023-02-24T12:08:43;9.30;99.90
38854;DHT22;24606;51.992;4.198;2023-02-24T12:13:49;9.90;99.90
38854;DHT22;24606;51.992;4.198;2023-02-24T12:18:58;9.50;99.90
38854;DHT22;24606;51.992;4.198;2023-02-24T12:24:07;10.90;99.90
38854;DHT22;24606;51.992;4.198;2023-02-24T12:29:29;9.90;99.90
38854;DHT22;24606;51.992;4.198;2023-02-24T12:34:50;9.40;99.90
38854;DHT22;24606;51.992;4.198;2023-02-24T12:40:00;9.40;99.90
38854;DHT22;24606;51.992;4.198;2023-02-24T12:45:12;9.00;99.90
38854;DHT22;24606;51.992;4.198;2023-02-24T12:50:23;9.20;99.90
38854;DHT22;24606;51.992;4.198;2023-02-24T12:55:38;9.60;99.90
38854;DHT22;24606;51.992;4.198;2023-02-24T13:00:50;9.50;99.90
38854;DHT22;24606;51.992;4.198;2023-02-24T13:06:01;10.00;99.90
38854;DHT22;24606;51.992;4.198;2023-02-24T13:11:15;10.60;99.90
38854;DHT22;24606;51.992;4.198;2023-02-24T13:16:27;11.10;99.90
38854;DHT22;24606;51.992;4.198;2023-02-24T13:21:29;11.40;99.90
38854;DHT22;24606;51.992;4.198;2023-02-24T13:26:33;10.90;99.90
38854;DHT22;24606;51.992;4.198;2023-02-24T13:31:42;10.70;99.90
38854;DHT22;24606;51.992;4.198;2023-02-24T13:36:48;11.30;99.90
38854;DHT22;24606;51.992;4.198;2023-02-24T13:42:00;11.20;99.90
38854;DHT22;24606;51.992;4.198;2023-02-24T13:47:32;11.30;99.90
38854;DHT22;24606;51.992;4.198;2023-02-24T13:52:45;11.70;99.90
38854;DHT22;24606;51.992;4.198;2023-02-24T13:58:08;12.20;99.90
38854;DHT22;24606;51.992;4.198;2023-02-24T14:03:19;13.00;99.90
38854;DHT22;24606;51.992;4.198;2023-02-24T14:08:24;12.20;99.90
38854;DHT22;24606;51.992;4.198;2023-02-24T14:13:31;11.60;99.90
38854;DHT22;24606;51.992;4.198;2023-02-24T14:18:34;11.00;99.90
38854;DHT22;24606;51.992;4.198;2023-02-24T14:23:36;13.90;98.80
38854;DHT22;24606;51.992;4.198;2023-02-24T14:28:41;12.20;99.90
38854;DHT22;24606;51.992;4.198;2023-02-24T14:33:43;13.30;99.90
38854;DHT22;24606;51.992;4.198;2023-02-24T14:38:45;12.10;97.00
38854;DHT22;24606;51.992;4.198;2023-02-24T14:43:49;13.90;99.90
38854;DHT22;24606;51.992;4.198;2023-02-24T14:48:53;13.80;89.30
38854;DHT22;24606;51.992;4.198;2023-02-24T14:53:57;13.10;99.90
38854;DHT22;24606;51.992;4.198;2023-02-24T14:59:03;11.80;99.90
38854;DHT22;24606;51.992;4.198;2023-02-24T15:04:11;14.60;99.80
38854;DHT22;24606;51.992;4.198;2023-02-24T15:09:17;13.70;99.90
38854;DHT22;24606;51.992;4.198;2023-02-24T15:14:23;13.60;99.90
38854;DHT22;24606;51.992;4.198;2023-02-24T15:19:31;12.90;97.30
38854;DHT22;24606;51.992;4.198;2023-02-24T15:24:35;13.30;96.70
38854;DHT22;24606;51.992;4.198;2023-02-24T15:29:39;14.30;96.20
38854;DHT22;24606;51.992;4.198;2023-02-24T15:34:43;14.40;98.40
38854;DHT22;24606;51.992;4.198;2023-02-24T15:39:48;13.20;99.90
38854;DHT22;24606;51.992;4.198;2023-02-24T15:44:53;12.70;99.90
38854;DHT22;24606;51.992;4.198;2023-02-24T15:49:56;14.00;99.90
38854;DHT22;24606;51.992;4.198;2023-02-24T15:54:58;13.80;99.90
38854;DHT22;24606;51.992;4.198;2023-02-24T16:00:05;14.50;99.90
38854;DHT22;24606;51.992;4.198;2023-02-24T16:05:13;15.40;97.30
38854;DHT22;24606;51.992;4.198;2023-02-24T16:10:18;13.40;99.90
38854;DHT22;24606;51.992;4.198;2023-02-24T16:15:25;13.20;99.90
38854;DHT22;24606;51.992;4.198;2023-02-24T16:20:29;15.10;99.60
38854;DHT22;24606;51.992;4.198;2023-02-24T16:25:36;15.70;97.70
38854;DHT22;24606;51.992;4.198;2023-02-24T16:30:40;15.40;91.30
38854;DHT22;24606;51.992;4.198;2023-02-24T16:35:42;15.80;93.60
38854;DHT22;24606;51.992;4.198;2023-02-24T16:40:46;16.40;94.30
38854;DHT22;24606;51.992;4.198;2023-02-24T16:45:51;12.70;90.60
38854;DHT22;24606;51.992;4.198;2023-02-24T16:50:54;12.90;97.90
38854;DHT22;24606;51.992;4.198;2023-02-24T16:55:56;12.50;99.90
38854;DHT22;24606;51.992;4.198;2023-02-24T17:01:00;12.80;99.90
38854;DHT22;24606;51.992;4.198;2023-02-24T17:06:04;15.70;98.10
38854;DHT22;24606;51.992;4.198;2023-02-24T17:11:10;12.20;99.90
38854;DHT22;24606;51.992;4.198;2023-02-24T17:16:14;14.70;99.90
38854;DHT22;24606;51.992;4.198;2023-02-24T17:21:16;14.90;99.90
38854;DHT22;24606;51.992;4.198;2023-02-24T17:26:20;13.30;99.90
38854;DHT22;24606;51.992;4.198;2023-02-24T17:31:23;12.60;96.30
38854;DHT22;24606;51.992;4.198;2023-02-24T17:36:31;12.60;99.90
38854;DHT22;24606;51.992;4.198;2023-02-24T17:41:33;13.30;99.90
38854;DHT22;24606;51.992;4.198;2023-02-24T17:46:36;14.50;96.00
38854;DHT22;24606;51.992;4.198;2023-02-24T17:51:38;15.30;95.20
38854;DHT22;24606;51.992;4.198;2023-02-24T17:56:40;16.10;90.60
38854;DHT22;24606;51.992;4.198;2023-02-24T18:01:43;15.60;96.00
38854;DHT22;24606;51.992;4.198;2023-02-24T18:06:45;16.00;96.30
38854;DHT22;24606;51.992;4.198;2023-02-24T18:11:47;12.50;99.90
38854;DHT22;24606;51.992;4.198;2023-02-24T18:16:51;13.50;99.90
38854;DHT22;24606;51.992;4.198;2023-02-24T18:21:53;13.10;99.90
38854;DHT22;24606;51.992;4.198;2023-02-24T18:26:55;13.30;99.90
38854;DHT22;24606;51.992;4.198;2023-02-24T18:31:58;13.80;99.90
38854;DHT22;24606;51.992;4.198;2023-02-24T18:37:00;13.70;99.90
38854;DHT22;24606;51.992;4.198;2023-02-24T18:42:02;11.80;99.90
38854;DHT22;24606;51.992;4.198;2023-02-24T18:47:05;12.60;99.90
38854;DHT22;24606;51.992;4.198;2023-02-24T18:52:08;10.30;97.90
38854;DHT22;24606;51.992;4.198;2023-02-24T18:57:11;12.90;99.90
38854;DHT22;24606;51.992;4.198;2023-02-24T19:02:14;11.40;94.90
38854;DHT22;24606;51.992;4.198;2023-02-24T19:07:16;13.20;99.90
38854;DHT22;24606;51.992;4.198;2023-02-24T19:12:18;14.60;97.70
38854;DHT22;24606;51.992;4.198;2023-02-24T19:17:22;15.30;97.90
38854;DHT22;24606;51.992;4.198;2023-02-24T19:22:24;15.90;95.30
38854;DHT22;24606;51.992;4.198;2023-02-24T19:27:26;14.60;99.90
38854;DHT22;24606;51.992;4.198;2023-02-24T19:32:29;15.20;91.20
38854;DHT22;24606;51.992;4.198;2023-02-24T19:37:31;16.00;93.10
38854;DHT22;24606;51.992;4.198;2023-02-24T19:42:33;16.30;93.90
38854;DHT22;24606;51.992;4.198;2023-02-24T19:47:36;13.80;98.90
38854;DHT22;24606;51.992;4.198;2023-02-24T19:52:42;16.00;95.10
38854;DHT22;24606;51.992;4.198;2023-02-24T19:57:44;16.40;89.20
38854;DHT22;24606;51.992;4.198;2023-02-24T20:02:48;15.20;99.70
38854;DHT22;24606;51.992;4.198;2023-02-24T20:07:50;13.60;99.90
38854;DHT22;24606;51.992;4.198;2023-02-24T20:12:51;16.00;96.10
38854;DHT22;24606;51.992;4.198;2023-02-24T20:17:54;17.10;79.70
38854;DHT22;24606;51.992;4.198;2023-02-24T20:22:58;16.40;90.30
38854;DHT22;24606;51.992;4.198;2023-02-24T20:28:00;12.00;83.00
38854;DHT22;24606;51.992;4.198;2023-02-24T20:33:03;11.70;99.90
38854;DHT22;24606;51.992;4.198;2023-02-24T20:38:06;14.20;99.00
38854;DHT22;24606;51.992;4.198;2023-02-24T20:43:08;15.60;97.30
38854;DHT22;24606;51.992;4.198;2023-02-24T20:48:12;14.70;98.90
38854;DHT22;24606;51.992;4.198;2023-02-24T20:53:13;14.90;99.30
38854;DHT22;24606;51.992;4.198;2023-02-24T20:58:15;16.60;92.30
38854;DHT22;24606;51.992;4.198;2023-02-24T21:03:19;14.30;68.00
38854;DHT22;24606;51.992;4.198;2023-02-24T21:08:23;16.20;93.20
38854;DHT22;24606;51.992;4.198;2023-02-24T21:13:25;15.20;95.10
38854;DHT22;24606;51.992;4.198;2023-02-24T21:18:28;15.50;96.60
38854;DHT22;24606;51.992;4.198;2023-02-24T21:23:30;17.40;87.20
38854;DHT22;24606;51.992;4.198;2023-02-24T21:28:33;16.20;81.40
38854;DHT22;24606;51.992;4.198;2023-02-24T21:33:36;14.60;77.40
38854;DHT22;24606;51.992;4.198;2023-02-24T21:38:38;13.60;90.60
38854;DHT22;24606;51.992;4.198;2023-02-24T21:43:41;11.70;99.90
38854;DHT22;24606;51.992;4.198;2023-02-24T21:48:44;12.80;92.20
38854;DHT22;24606;51.992;4.198;2023-02-24T21:53:46;10.70;99.90
38854;DHT22;24606;51.992;4.198;2023-02-24T21:58:50;12.70;99.90
38854;DHT22;24606;51.992;4.198;2023-02-24T22:03:57;13.40;99.90
38854;DHT22;24606;51.992;4.198;2023-02-24T22:08:59;13.60;96.70
38854;DHT22;24606;51.992;4.198;2023-02-24T22:14:01;12.60;94.40
38854;DHT22;24606;51.992;4.198;2023-02-24T22:19:05;13.80;93.20
38854;DHT22;24606;51.992;4.198;2023-02-24T22:24:09;14.10;99.90
38854;DHT22;24606;51.992;4.198;2023-02-24T22:29:12;15.00;96.20
38854;DHT22;24606;51.992;4.198;2023-02-24T22:34:15;15.70;89.00
38854;DHT22;24606;51.992;4.198;2023-02-24T22:39:17;14.10;97.80
38854;DHT22;24606;51.992;4.198;2023-02-24T22:44:19;12.40;99.90
38854;DHT22;24606;51.992;4.198;2023-02-24T22:49:22;16.00;88.90
38854;DHT22;24606;51.992;4.198;2023-02-24T22:54:24;16.00;88.10
38854;DHT22;24606;51.992;4.198;2023-02-24T22:59:26;17.10;82.70
38854;DHT22;24606;51.992;4.198;2023-02-24T23:04:30;17.30;80.40
38854;DHT22;24606;51.992;4.198;2023-02-24T23:09:34;17.30;80.70
38854;DHT22;24606;51.992;4.198;2023-02-24T23:14:36;13.50;93.60
38854;DHT22;24606;51.992;4.198;2023-02-24T23:19:39;10.80;99.90
38854;DHT22;24606;51.992;4.198;2023-02-24T23:24:41;10.80;99.90
38854;DHT22;24606;51.992;4.198;2023-02-24T23:29:44;11.20;99.90
38854;DHT22;24606;51.992;4.198;2023-02-24T23:34:47;12.50;99.90
38854;DHT22;24606;51.992;4.198;2023-02-24T23:39:49;12.70;99.90
38854;DHT22;24606;51.992;4.198;2023-02-24T23:44:51;13.00;99.90
38854;DHT22;24606;51.992;4.198;2023-02-24T23:49:54;14.10;98.30
38854;DHT22;24606;51.992;4.198;2023-02-24T23:54:56;14.80;93.50
38854;DHT22;24606;51.992;4.198;2023-02-24T23:59:58;15.20;74.70
